Currently 68°F in Temecula, California, USA
68°F
85°F / 58°F
4 mph S
0.00"
Thursday, September 20, 2018 7:55 PM PDT

Temecula, California Weather Summary
Last 36 Hours

Temperature Winds Hourly Humidity Dewpoint
Time Report Norm Report Norm Max Gusts Precip. Rpt. Norm Rpt. Norm Pressure
1Thu 07:55 PM  68.3°F  71°F  4 mph S  3 mph  11 mph  0.00"  76%  63%  60°F  57°F  29.95"
Thu 07:00 PM  70.8°F  75°F  4 mph SW  4 mph  13 mph  0.00"  71%  55%  61°F  57°F  29.94"
Thu 06:00 PM  75.8°F  80°F  4 mph W  6 mph  14 mph  0.00"  62%  45%  61°F  56°F  29.90"
Thu 05:00 PM  78.5°F  83°F  9 mph W  8 mph  15 mph  0.00"  58%  40%  62°F  55°F  29.88"
Thu 04:00 PM  80.6°F  86°F  7 mph SW  8 mph  17 mph  0.00"  54%  36%  62°F  55°F  29.85"
Thu 03:00 PM  83.9°F  87°F  7 mph SW  8 mph  12 mph  0.00"  49%  34%  62°F  55°F  29.85"
2Thu 02:29 PM  85.2°F  87°F  7 mph SW  8 mph  12 mph  ----  47%  34%  62°F  55°F  29.85"
Thu 02:00 PM  84.7°F  87°F  4 mph SW  8 mph  17 mph  0.00"  48%  34%  62°F  54°F  29.86"
Thu 01:00 PM  82.4°F  85°F  8 mph SW  7 mph  15 mph  0.00"  51%  35%  62°F  54°F  29.89"
Thu 12:00 PM  83.8°F  82°F  4 mph SW  5 mph  10 mph  0.00"  48%  40%  62°F  55°F  29.89"
Thu 11:00 AM  78.6°F  77°F  2 mph W  3 mph  6 mph  0.00"  50%  50%  58°F  56°F  29.91"
Thu 10:00 AM  72.0°F  70°F  1 mph W  2 mph  4 mph  0.00"  55%  63%  55°F  57°F  29.91"
Thu 09:00 AM  64.9°F  64°F  calm  1 mph  2 mph  0.00"  72%  77%  55°F  57°F  29.91"
Thu 08:00 AM  60.2°F  60°F  calm  1 mph  none  0.00"  82%  86%  54°F  56°F  29.90"
Thu 07:00 AM  58.8°F  59°F  calm  calm  none  0.00"  85%  87%  54°F  55°F  29.89"
3Thu 06:22 AM  58.2°F  59°F  calm  1 mph  none  ----  84%  87%  53°F  55°F  29.88"
Thu 06:00 AM  58.7°F  59°F  calm  1 mph  none  0.00"  84%  86%  54°F  55°F  29.87"
Thu 05:00 AM  58.8°F  60°F  calm  1 mph  none  0.00"  81%  85%  53°F  55°F  29.85"
Thu 04:00 AM  59.6°F  61°F  calm  calm  3 mph  0.00"  82%  84%  54°F  56°F  29.85"
Thu 03:00 AM  61.0°F  62°F  1 mph SE  1 mph  4 mph  0.00"  85%  83%  56°F  56°F  29.84"
Thu 02:00 AM  60.9°F  62°F  calm  1 mph  none  0.00"  80%  82%  54°F  57°F  29.84"
Thu 01:00 AM  61.8°F  63°F  calm  1 mph  none  0.00"  80%  80%  55°F  57°F  29.85"
Thu 12:00 AM  62.4°F  64°F  calm  1 mph  3 mph  0.00"  80%  78%  56°F  57°F  29.84"
Wed 11:00 PM  64.3°F  66°F  2 mph SE  1 mph  6 mph  0.00"  80%  76%  58°F  58°F  29.84"
Wed 10:00 PM  65.6°F  67°F  2 mph S  1 mph  5 mph  0.00"  75%  73%  57°F  58°F  29.84"
Wed 09:00 PM  67.7°F  69°F  1 mph SE  2 mph  8 mph  0.00"  70%  70%  57°F  58°F  29.83"
Wed 08:00 PM  70.8°F  71°F  3 mph S  3 mph  9 mph  0.00"  61%  64%  56°F  58°F  29.81"
Wed 07:00 PM  75.3°F  75°F  calm  4 mph  12 mph  0.00"  49%  55%  54°F  57°F  29.78"
Wed 06:00 PM  83.4°F  80°F  5 mph SW  6 mph  10 mph  0.00"  35%  45%  52°F  56°F  29.78"
Wed 05:00 PM  83.1°F  83°F  3 mph SW  8 mph  15 mph  0.00"  35%  40%  52°F  56°F  29.75"
Wed 04:00 PM  85.1°F  85°F  6 mph S  8 mph  17 mph  0.00"  31%  37%  50°F  55°F  29.74"
Wed 03:00 PM  87.5°F  87°F  9 mph S  8 mph  16 mph  0.00"  25%  35%  46°F  55°F  29.75"
Wed 02:00 PM  88.9°F  87°F  8 mph SW  8 mph  13 mph  0.00"  25%  35%  47°F  55°F  29.78"
Wed 01:00 PM  86.4°F  85°F  3 mph SW  7 mph  12 mph  0.00"  21%  36%  40°F  54°F  29.83"
Wed 12:00 PM  81.7°F  82°F  10 mph W  5 mph  11 mph  0.00"  28%  41%  44°F  55°F  29.85"
Wed 11:00 AM  75.2°F  77°F  calm  3 mph  5 mph  0.00"  43%  51%  50°F  57°F  29.88"
Wed 10:00 AM  67.7°F  70°F  calm  2 mph  6 mph  0.00"  60%  64%  53°F  57°F  29.90"
Wed 09:00 AM  59.8°F  64°F  calm  1 mph  none  0.00"  74%  77%  51°F  57°F  29.90"
Wed 08:00 AM  52.3°F  60°F  calm  1 mph  none  0.00"  85%  86%  48°F  56°F  29.90"

  1. Current weather data. No green row appears if the current weather data is also the high or low for the current day.
  2. High temperature for the current day.
  3. Low temperature for the current day.

The Temecula weather pages are a service of WeatherCurrents. Temecula, California is located in the Temecula Valley, in southwestern Riverside County, along the Interstate 15 highway. The Temecula Valley's rolling hills are home to the Temecula wine country, vineyards, golf courses, a casino resort, and Old Town Temecula.
Copyright ©Thu Sep 20 19:55:39 PDT 2018  WeatherCurrents. All rights reserved. - Submit questions and comments - Privacy Policy

This page automatically refreshes every 10 minutes.